Time;durP1;ratioP1;P1;durP2;ratioP2;P2;SDS_P1;SDS_P2;PMS_P1;PMS_P2;Temp;Humidity;BMP_temperature;BMP_pressure;BME280_temperature;BME280_humidity;BME280_pressure;Samples;Min_cycle;Max_cycle;Signal;HPM_P1;HPM_P2
2021/08/08 00:00:06;;;;;;;3.72;2.10;;;15.60;99.90;;;;;;5040416;28;20630;-69
2021/08/08 00:02:36;;;;;;;5.90;1.73;;;15.60;99.90;;;;;;5041332;28;20068;-69
2021/08/08 00:05:09;;;;;;;5.60;2.08;;;15.60;99.90;;;;;;5041767;28;20045;-69
2021/08/08 00:07:35;;;;;;;3.28;1.63;;;15.60;99.90;;;;;;5039234;28;20119;-69
2021/08/08 00:10:01;;;;;;;6.85;2.72;;;15.60;99.90;;;;;;5041168;28;20049;-69
2021/08/08 00:12:27;;;;;;;4.57;1.75;;;15.60;99.90;;;;;;5041344;28;20041;-69
2021/08/08 00:14:53;;;;;;;4.10;1.73;;;15.60;99.90;;;;;;5039854;28;20108;-69
2021/08/08 00:17:19;;;;;;;3.88;2.10;;;15.60;99.90;;;;;;5038428;28;20553;-69
2021/08/08 00:19:45;;;;;;;7.20;1.73;;;15.60;99.90;;;;;;5040385;28;20049;-69
2021/08/08 00:22:10;;;;;;;3.35;2.00;;;15.60;99.90;;;;;;5039006;28;20457;-69
2021/08/08 00:24:36;;;;;;;4.35;1.70;;;15.60;99.90;;;;;;5042562;28;20037;-69
2021/08/08 00:27:02;;;;;;;5.90;1.92;;;15.50;99.90;;;;;;5039573;28;20446;-69
2021/08/08 00:29:27;;;;;;;5.55;1.92;;;15.50;99.90;;;;;;5039603;28;20048;-69
2021/08/08 00:31:53;;;;;;;3.75;1.65;;;15.50;99.90;;;;;;5041428;28;20053;-69
2021/08/08 00:34:18;;;;;;;4.50;1.35;;;15.50;99.90;;;;;;5040146;28;20478;-69
2021/08/08 00:36:44;;;;;;;4.07;1.75;;;15.50;99.90;;;;;;5039097;28;20056;-69
2021/08/08 00:39:10;;;;;;;4.47;2.20;;;15.50;99.90;;;;;;5039942;28;20045;-69
2021/08/08 00:41:35;;;;;;;2.45;1.90;;;15.50;99.90;;;;;;5039348;28;20037;-69
2021/08/08 00:44:01;;;;;;;4.20;1.65;;;15.50;99.90;;;;;;5043428;28;20057;-69
2021/08/08 00:46:27;;;;;;;5.45;2.10;;;15.50;99.90;;;;;;5041314;28;20037;-69
2021/08/08 00:48:52;;;;;;;3.45;1.80;;;15.50;99.90;;;;;;5040105;28;20071;-69
2021/08/08 00:51:19;;;;;;;4.25;1.80;;;15.50;99.90;;;;;;5040319;28;20047;-69
2021/08/08 00:53:46;;;;;;;10.00;2.30;;;15.50;99.90;;;;;;5038471;28;20037;-69
2021/08/08 00:56:12;;;;;;;4.13;1.70;;;15.50;99.90;;;;;;5040351;28;20045;-69
2021/08/08 00:58:38;;;;;;;4.63;1.75;;;15.50;99.90;;;;;;5038647;28;20040;-69
2021/08/08 01:01:06;;;;;;;3.95;2.00;;;15.50;99.90;;;;;;5038510;28;20045;-69
2021/08/08 01:03:32;;;;;;;5.55;2.10;;;15.50;99.90;;;;;;5039488;28;20033;-69
2021/08/08 01:06:28;;;;;;;6.22;2.10;;;15.50;99.90;;;;;;5042147;28;20043;-69
2021/08/08 01:08:56;;;;;;;;;;;15.50;99.90;;;;;;5041480;28;20033;-69
2021/08/08 01:11:23;;;;;;;2.15;1.60;;;15.50;99.90;;;;;;5040979;28;20284;-69
2021/08/08 01:13:52;;;;;;;3.53;2.10;;;15.40;99.90;;;;;;5040309;28;20120;-69
2021/08/08 01:16:20;;;;;;;4.32;2.42;;;15.50;99.90;;;;;;5042387;28;20045;-69
2021/08/08 01:18:48;;;;;;;2.53;1.73;;;15.50;99.90;;;;;;5040064;28;20131;-69
2021/08/08 01:21:14;;;;;;;5.80;2.40;;;15.50;99.90;;;;;;5041862;28;20403;-69
2021/08/08 01:23:43;;;;;;;3.88;1.90;;;15.60;99.90;;;;;;5039558;28;20536;-69
2021/08/08 01:26:09;;;;;;;3.90;1.90;;;15.60;99.90;;;;;;5038151;28;20057;-69
2021/08/08 01:28:36;;;;;;;4.32;1.95;;;15.60;99.90;;;;;;5039293;28;20041;-69
2021/08/08 01:31:02;;;;;;;4.65;2.20;;;15.60;99.90;;;;;;5040492;28;20399;-69
2021/08/08 01:33:28;;;;;;;3.60;2.22;;;15.60;99.90;;;;;;5038752;28;20033;-69
2021/08/08 01:35:54;;;;;;;5.13;1.95;;;15.60;99.90;;;;;;5038638;28;20037;-69
2021/08/08 01:38:21;;;;;;;8.43;2.25;;;15.60;99.90;;;;;;5039188;28;20052;-69
2021/08/08 01:41:02;;;;;;;3.70;2.35;;;15.60;99.90;;;;;;5039014;28;20029;-69
2021/08/08 01:43:33;;;;;;;6.53;2.42;;;15.50;99.90;;;;;;5038495;28;20802;-69
2021/08/08 01:46:08;;;;;;;3.85;2.05;;;15.60;99.90;;;;;;5039094;28;20055;-69
2021/08/08 01:48:37;;;;;;;6.20;2.25;;;15.50;99.90;;;;;;5040863;28;20049;-69
2021/08/08 01:51:03;;;;;;;5.28;2.88;;;15.60;99.90;;;;;;5040658;28;20479;-69
2021/08/08 01:53:29;;;;;;;8.60;2.75;;;15.60;99.90;;;;;;5042503;28;20033;-69
2021/08/08 01:55:55;;;;;;;4.05;2.40;;;15.60;99.90;;;;;;5039947;28;20045;-68
2021/08/08 01:58:21;;;;;;;7.55;3.30;;;15.60;99.90;;;;;;5037660;28;20117;-69
2021/08/08 02:00:50;;;;;;;5.13;2.78;;;15.60;99.90;;;;;;5041528;28;20059;-69
2021/08/08 02:03:16;;;;;;;5.38;2.95;;;15.60;99.90;;;;;;5039657;28;20071;-68
2021/08/08 02:05:42;;;;;;;4.32;3.17;;;15.60;99.90;;;;;;5041765;28;20473;-69
2021/08/08 02:08:07;;;;;;;4.20;3.03;;;15.60;99.90;;;;;;5040220;28;20055;-69
2021/08/08 02:10:33;;;;;;;3.75;3.35;;;15.60;99.90;;;;;;5039513;28;20147;-69
2021/08/08 02:12:58;;;;;;;6.47;3.70;;;15.60;99.90;;;;;;5038697;28;20033;-69
2021/08/08 02:15:25;;;;;;;5.03;4.03;;;15.60;99.90;;;;;;5038528;28;20033;-69
2021/08/08 02:17:51;;;;;;;3.85;3.53;;;15.60;99.90;;;;;;5039425;28;20041;-69
2021/08/08 02:20:18;;;;;;;4.15;3.50;;;15.60;99.90;;;;;;5041735;28;20118;-69
2021/08/08 02:22:45;;;;;;;10.27;4.03;;;15.60;99.90;;;;;;5035798;28;20040;-69
2021/08/08 02:25:11;;;;;;;5.35;4.18;;;15.70;99.90;;;;;;5040931;28;20116;-69
2021/08/08 02:27:38;;;;;;;8.93;4.25;;;15.60;99.90;;;;;;5041913;28;20043;-69
2021/08/08 02:30:06;;;;;;;4.75;3.85;;;15.60;99.90;;;;;;5040566;28;20037;-69
2021/08/08 02:32:32;;;;;;;6.47;4.20;;;15.70;99.90;;;;;;5044472;28;20052;-69
2021/08/08 02:34:58;;;;;;;5.30;4.15;;;15.70;99.90;;;;;;5041828;28;20419;-69
2021/08/08 02:37:23;;;;;;;6.20;4.15;;;15.60;99.90;;;;;;5041946;28;20483;-69
2021/08/08 02:39:49;;;;;;;6.63;4.45;;;15.70;99.90;;;;;;5043584;28;20059;-69
2021/08/08 02:42:15;;;;;;;9.25;4.25;;;15.70;99.90;;;;;;5042578;28;20051;-69
2021/08/08 02:44:40;;;;;;;4.85;4.15;;;15.70;99.90;;;;;;5043734;28;20457;-69
2021/08/08 02:47:06;;;;;;;6.40;4.20;;;15.70;99.90;;;;;;5046432;28;20124;-69
2021/08/08 02:49:32;;;;;;;4.50;4.13;;;15.70;99.90;;;;;;5040066;28;20041;-69
2021/08/08 02:51:57;;;;;;;6.03;4.38;;;15.80;99.90;;;;;;5044078;28;20037;-69
2021/08/08 02:54:23;;;;;;;5.43;4.43;;;15.80;99.90;;;;;;5040374;28;20523;-69
2021/08/08 02:56:49;;;;;;;5.20;4.70;;;15.80;99.90;;;;;;5039196;28;20037;-69
2021/08/08 02:59:14;;;;;;;4.90;4.38;;;15.80;99.90;;;;;;5042396;28;20505;-69
2021/08/08 03:01:40;;;;;;;5.85;4.88;;;15.80;99.90;;;;;;5039913;28;20045;-69
2021/08/08 03:04:06;;;;;;;5.53;4.93;;;15.80;99.90;;;;;;5043294;28;20041;-69
2021/08/08 03:06:31;;;;;;;5.63;5.07;;;15.80;99.90;;;;;;5040916;28;20037;-69
2021/08/08 03:08:57;;;;;;;6.43;5.20;;;15.90;99.90;;;;;;5047025;28;20041;-69
2021/08/08 03:11:23;;;;;;;5.90;5.40;;;15.80;99.90;;;;;;5047420;28;20095;-69
2021/08/08 03:13:48;;;;;;;8.27;5.93;;;15.90;99.90;;;;;;5041737;28;20041;-69
2021/08/08 03:16:15;;;;;;;8.00;6.38;;;15.90;99.90;;;;;;5046033;28;20045;-69
2021/08/08 03:18:40;;;;;;;8.10;5.53;;;15.90;99.90;;;;;;5043248;28;20130;-69
2021/08/08 03:21:06;;;;;;;8.45;6.80;;;15.90;99.90;;;;;;5046718;28;20044;-69
2021/08/08 03:23:34;;;;;;;7.20;6.47;;;15.90;99.90;;;;;;5045953;28;20095;-69
2021/08/08 03:26:01;;;;;;;8.27;5.90;;;15.90;99.90;;;;;;5045822;28;20837;-69
2021/08/08 03:28:26;;;;;;;8.80;6.38;;;15.90;99.90;;;;;;5046750;28;20040;-70
2021/08/08 03:30:52;;;;;;;9.07;5.75;;;15.90;99.90;;;;;;5046291;28;20036;-69
2021/08/08 03:33:17;;;;;;;7.35;6.65;;;15.90;99.90;;;;;;5047633;28;20044;-69
2021/08/08 03:35:43;;;;;;;9.80;7.55;;;15.90;99.90;;;;;;5047199;28;20037;-69
2021/08/08 03:38:09;;;;;;;8.07;6.72;;;15.90;99.90;;;;;;5045076;28;20112;-69
2021/08/08 03:40:35;;;;;;;8.30;7.50;;;15.90;99.90;;;;;;5047175;28;20478;-69
2021/08/08 03:43:03;;;;;;;6.97;6.25;;;15.90;99.90;;;;;;5047925;28;20400;-69
2021/08/08 03:45:28;;;;;;;8.45;7.30;;;16.00;99.90;;;;;;5047126;28;20033;-69
2021/08/08 03:47:54;;;;;;;8.55;7.07;;;15.90;99.90;;;;;;5047130;28;20037;-69
2021/08/08 03:50:20;;;;;;;8.57;7.65;;;15.90;99.90;;;;;;5044873;28;20048;-69
2021/08/08 03:52:45;;;;;;;10.07;7.82;;;15.90;99.90;;;;;;5041325;28;20037;-69
2021/08/08 03:55:11;;;;;;;9.13;7.95;;;16.00;99.90;;;;;;5046624;28;20525;-69
2021/08/08 03:57:37;;;;;;;8.63;7.82;;;16.00;99.90;;;;;;5048689;28;20368;-69
2021/08/08 04:00:03;;;;;;;11.27;8.68;;;16.00;99.90;;;;;;5048915;28;20137;-69
2021/08/08 04:02:29;;;;;;;12.50;9.27;;;16.00;99.90;;;;;;5049411;28;20072;-69
2021/08/08 04:04:55;;;;;;;11.23;8.48;;;16.00;99.90;;;;;;5043587;28;20479;-69
2021/08/08 04:07:20;;;;;;;12.27;9.65;;;16.00;99.90;;;;;;5041617;28;20041;-69
2021/08/08 04:09:46;;;;;;;12.13;8.85;;;16.00;99.90;;;;;;5045008;28;20040;-69
2021/08/08 04:12:12;;;;;;;13.82;8.32;;;16.00;99.90;;;;;;5046787;28;20045;-69
2021/08/08 04:14:38;;;;;;;10.57;8.43;;;16.10;99.90;;;;;;5047913;28;20029;-69
2021/08/08 04:17:05;;;;;;;14.02;8.95;;;16.10;99.90;;;;;;5046025;28;20837;-69
2021/08/08 04:19:31;;;;;;;10.82;9.48;;;16.10;99.90;;;;;;5040575;28;20041;-69
2021/08/08 04:21:57;;;;;;;12.95;8.73;;;16.20;99.90;;;;;;5045462;28;20034;-69
2021/08/08 04:24:23;;;;;;;13.25;8.95;;;16.20;99.90;;;;;;5044241;28;20052;-69
2021/08/08 04:26:48;;;;;;;12.85;8.77;;;16.20;99.90;;;;;;5041569;28;20037;-69
2021/08/08 04:29:16;;;;;;;10.45;8.43;;;16.30;99.90;;;;;;5043960;28;20128;-69
2021/08/08 04:31:42;;;;;;;11.98;8.15;;;16.30;99.90;;;;;;5044208;28;20120;-69
2021/08/08 04:34:07;;;;;;;12.77;8.40;;;16.30;99.90;;;;;;5047239;28;20471;-70
2021/08/08 04:36:33;;;;;;;10.85;8.13;;;16.30;99.90;;;;;;5042398;28;20686;-70
2021/08/08 04:39:01;;;;;;;9.70;7.35;;;16.40;99.90;;;;;;5041057;28;20032;-69
2021/08/08 04:41:27;;;;;;;9.27;7.07;;;16.40;99.90;;;;;;5039329;28;20034;-69
2021/08/08 04:43:53;;;;;;;7.80;6.45;;;16.40;99.90;;;;;;5043725;28;20040;-70
2021/08/08 04:46:18;;;;;;;8.95;5.82;;;16.40;99.90;;;;;;5047454;28;20119;-69
2021/08/08 04:48:44;;;;;;;7.68;5.22;;;16.40;99.90;;;;;;5041948;28;20044;-69
2021/08/08 04:51:10;;;;;;;10.10;5.50;;;16.30;99.90;;;;;;5042875;28;20143;-69
2021/08/08 04:53:35;;;;;;;12.25;6.13;;;16.30;99.90;;;;;;5038264;28;20041;-69
2021/08/08 04:56:01;;;;;;;4.82;4.30;;;16.30;99.90;;;;;;5042785;28;20087;-69
2021/08/08 04:58:27;;;;;;;6.90;4.75;;;16.20;99.90;;;;;;5044709;28;20048;-69
2021/08/08 05:00:52;;;;;;;9.43;5.65;;;16.20;99.90;;;;;;5046608;28;20053;-69
2021/08/08 05:03:18;;;;;;;6.55;4.57;;;16.20;99.90;;;;;;5042703;28;20560;-68
2021/08/08 05:05:44;;;;;;;5.93;4.65;;;16.20;99.90;;;;;;5043518;28;20037;-69
2021/08/08 05:08:09;;;;;;;7.78;4.32;;;16.10;99.90;;;;;;5043524;28;20117;-69
2021/08/08 05:10:35;;;;;;;7.28;4.07;;;16.10;99.90;;;;;;5044702;28;20144;-69
2021/08/08 05:13:00;;;;;;;4.45;2.88;;;16.10;99.90;;;;;;5039170;28;20045;-69
2021/08/08 05:15:26;;;;;;;4.43;2.10;;;16.00;99.90;;;;;;5040931;28;20029;-69
2021/08/08 05:17:53;;;;;;;5.07;2.20;;;16.00;99.90;;;;;;5039079;28;20292;-69
2021/08/08 05:20:18;;;;;;;3.75;2.60;;;16.00;99.90;;;;;;5040190;28;20048;-69
2021/08/08 05:22:44;;;;;;;5.68;3.03;;;16.00;99.90;;;;;;5040060;28;20147;-69
2021/08/08 05:25:11;;;;;;;6.70;3.60;;;16.00;99.90;;;;;;5037457;28;20045;-69
2021/08/08 05:27:37;;;;;;;5.15;4.05;;;16.00;99.90;;;;;;5038469;28;20048;-69
2021/08/08 05:30:08;;;;;;;6.68;4.13;;;16.00;99.90;;;;;;5039892;28;20033;-69
2021/08/08 05:32:35;;;;;;;5.90;4.30;;;16.00;99.90;;;;;;5038690;28;20037;-69
2021/08/08 05:35:00;;;;;;;5.68;3.38;;;16.00;99.90;;;;;;5038710;28;20029;-69
2021/08/08 05:37:46;;;;;;;4.70;3.88;;;16.00;99.90;;;;;;5035336;28;20453;-69
2021/08/08 05:40:12;;;;;;;7.07;3.92;;;16.00;99.90;;;;;;5039560;28;20047;-69
2021/08/08 05:42:38;;;;;;;6.28;4.07;;;16.10;99.90;;;;;;5042075;28;20044;-69
2021/08/08 05:45:05;;;;;;;5.20;4.10;;;16.00;99.90;;;;;;5040190;28;20513;-69
2021/08/08 05:47:31;;;;;;;5.35;3.50;;;16.10;99.90;;;;;;5039072;28;20487;-69
2021/08/08 05:49:57;;;;;;;9.18;4.38;;;16.00;99.90;;;;;;5040045;28;20064;-69
2021/08/08 05:52:22;;;;;;;5.43;3.47;;;16.10;99.90;;;;;;5040352;28;20652;-69
2021/08/08 05:54:48;;;;;;;10.93;4.10;;;16.10;99.90;;;;;;5039682;28;20030;-69
2021/08/08 05:57:14;;;;;;;29.40;6.55;;;16.10;99.90;;;;;;5039636;28;20590;-70
2021/08/08 05:59:40;;;;;;;10.13;4.88;;;16.00;99.90;;;;;;5038979;28;20049;-69
2021/08/08 06:02:06;;;;;;;13.18;5.40;;;16.00;99.90;;;;;;5039441;28;20037;-68
2021/08/08 06:04:32;;;;;;;12.52;5.95;;;16.00;99.90;;;;;;5040876;28;20162;-69
2021/08/08 06:06:57;;;;;;;14.13;4.95;;;15.90;99.90;;;;;;5036975;28;20044;-69
2021/08/08 06:09:23;;;;;;;12.38;6.43;;;15.90;99.90;;;;;;5038035;28;20037;-69
2021/08/08 06:11:49;;;;;;;15.18;5.90;;;15.90;99.90;;;;;;5035649;28;20073;-70
2021/08/08 06:14:14;;;;;;;14.15;6.75;;;15.90;99.90;;;;;;5036843;28;20511;-69
2021/08/08 06:16:40;;;;;;;23.50;9.15;;;15.90;99.90;;;;;;5037756;28;20423;-69
2021/08/08 06:19:06;;;;;;;17.80;9.35;;;15.90;99.90;;;;;;5038993;28;20612;-69
2021/08/08 06:21:32;;;;;;;14.57;8.10;;;15.90;99.90;;;;;;5037982;28;20037;-69
2021/08/08 06:23:57;;;;;;;17.77;8.85;;;15.90;99.90;;;;;;5038255;28;20041;-69
2021/08/08 06:26:23;;;;;;;19.60;9.48;;;15.90;99.90;;;;;;5041999;28;20479;-69
2021/08/08 06:28:49;;;;;;;20.92;8.48;;;15.90;99.90;;;;;;5037393;28;20103;-69
2021/08/08 06:31:14;;;;;;;25.50;8.30;;;15.90;99.90;;;;;;5041278;28;21408;-69
2021/08/08 06:33:40;;;;;;;18.75;8.27;;;15.90;99.90;;;;;;5038080;28;20036;-69
2021/08/08 06:36:06;;;;;;;23.73;10.75;;;15.90;99.90;;;;;;5038071;28;20037;-69
2021/08/08 06:38:31;;;;;;;25.00;9.73;;;15.90;99.90;;;;;;5037255;28;20041;-70
2021/08/08 06:40:57;;;;;;;21.92;9.32;;;15.90;99.90;;;;;;5040247;28;20040;-70
2021/08/08 06:43:22;;;;;;;25.05;8.65;;;15.90;99.90;;;;;;5039601;28;20393;-69
2021/08/08 06:45:50;;;;;;;16.48;8.98;;;15.90;99.90;;;;;;5041682;28;20034;-70
2021/08/08 06:48:16;;;;;;;17.88;9.02;;;15.90;99.90;;;;;;5044577;28;20041;-69
2021/08/08 06:50:41;;;;;;;19.05;8.45;;;16.00;99.90;;;;;;5043981;28;20466;-69
2021/08/08 06:53:07;;;;;;;21.92;8.32;;;16.00;99.90;;;;;;5042732;28;20107;-69
2021/08/08 06:55:39;;;;;;;14.68;8.23;;;16.00;99.90;;;;;;5043532;28;20060;-69
2021/08/08 06:58:05;;;;;;;19.27;7.80;;;16.00;99.90;;;;;;5041358;28;20038;-69
2021/08/08 07:00:30;;;;;;;19.58;7.15;;;16.10;99.90;;;;;;5044080;28;20049;-69
2021/08/08 07:02:56;;;;;;;20.48;8.45;;;16.10;99.90;;;;;;5044771;28;20048;-69
2021/08/08 07:05:22;;;;;;;19.60;8.35;;;16.20;99.90;;;;;;5044052;28;20407;-70
2021/08/08 07:07:48;;;;;;;17.95;6.85;;;16.20;99.90;;;;;;5040830;28;20075;-70
2021/08/08 07:10:13;;;;;;;14.70;7.22;;;16.20;99.90;;;;;;5042945;28;20056;-70
2021/08/08 07:12:39;;;;;;;14.50;7.32;;;16.40;99.90;;;;;;5041873;28;20588;-69
2021/08/08 07:15:07;;;;;;;14.43;6.80;;;16.50;99.90;;;;;;5041506;28;20528;-70
2021/08/08 07:17:33;;;;;;;17.95;7.88;;;16.60;99.90;;;;;;5044863;28;20044;-70
2021/08/08 07:19:59;;;;;;;13.23;5.22;;;17.00;99.90;;;;;;5042924;28;20099;-69
2021/08/08 07:22:25;;;;;;;13.02;4.85;;;17.40;99.90;;;;;;5039136;28;20041;-69
2021/08/08 07:24:51;;;;;;;12.70;5.15;;;17.70;99.90;;;;;;5042325;28;20045;-70
2021/08/08 07:27:19;;;;;;;15.00;5.70;;;17.80;99.90;;;;;;5042305;28;20095;-70
2021/08/08 07:29:44;;;;;;;12.48;5.40;;;17.90;99.90;;;;;;5042286;28;20041;-70
2021/08/08 07:32:10;;;;;;;15.27;4.72;;;17.90;99.90;;;;;;5040469;28;20041;-71
2021/08/08 07:34:36;;;;;;;19.20;5.55;;;18.00;99.90;;;;;;5039573;28;20052;-69
2021/08/08 07:37:01;;;;;;;14.25;4.65;;;18.00;99.90;;;;;;5041095;28;20049;-70
2021/08/08 07:39:29;;;;;;;13.82;4.60;;;18.00;99.90;;;;;;5038742;28;20077;-70
2021/08/08 07:41:54;;;;;;;17.23;6.43;;;17.80;99.90;;;;;;5038857;28;20058;-70
2021/08/08 07:44:20;;;;;;;17.63;5.30;;;17.80;99.90;;;;;;5040680;28;20041;-70
2021/08/08 07:46:46;;;;;;;13.52;5.05;;;17.90;99.90;;;;;;5038599;28;20617;-69
2021/08/08 07:49:11;;;;;;;14.70;4.38;;;17.80;99.90;;;;;;5039881;28;20045;-70
2021/08/08 07:51:37;;;;;;;14.63;4.72;;;17.80;99.90;;;;;;5042123;28;20033;-70
2021/08/08 07:54:03;;;;;;;13.77;4.45;;;17.80;99.90;;;;;;5040794;28;20040;-70
2021/08/08 07:56:28;;;;;;;19.05;5.45;;;17.80;99.90;;;;;;5041924;28;20048;-70
2021/08/08 07:58:54;;;;;;;12.68;4.10;;;17.70;99.90;;;;;;5042739;28;20136;-69
2021/08/08 08:01:19;;;;;;;12.27;3.85;;;17.70;99.90;;;;;;5041789;28;20102;-70
2021/08/08 08:03:45;;;;;;;14.65;4.97;;;17.70;99.90;;;;;;5043022;28;20505;-70
2021/08/08 08:06:10;;;;;;;14.18;4.40;;;17.70;99.90;;;;;;5039760;28;20468;-70
2021/08/08 08:08:36;;;;;;;17.17;5.32;;;17.70;99.90;;;;;;5039569;28;20048;-69
2021/08/08 08:11:02;;;;;;;16.75;5.32;;;17.80;99.90;;;;;;5042766;28;20052;-70
2021/08/08 08:13:27;;;;;;;13.63;3.17;;;18.00;99.90;;;;;;5042699;28;20033;-70
2021/08/08 08:15:53;;;;;;;12.02;3.78;;;18.20;99.90;;;;;;5038846;28;20057;-69
2021/08/08 08:18:19;;;;;;;9.48;3.70;;;18.20;99.90;;;;;;5041787;28;20045;-69
2021/08/08 08:20:45;;;;;;;15.43;4.28;;;18.30;99.90;;;;;;5037599;28;20569;-69
2021/08/08 08:23:10;;;;;;;10.90;3.47;;;18.10;99.90;;;;;;5042440;28;20048;-69
2021/08/08 08:25:37;;;;;;;9.45;3.95;;;18.10;99.90;;;;;;5040006;28;20037;-69
2021/08/08 08:28:03;;;;;;;14.50;4.50;;;18.10;99.90;;;;;;5040328;28;20043;-69
2021/08/08 08:30:29;;;;;;;11.20;3.13;;;18.00;99.90;;;;;;5039824;28;20045;-69
2021/08/08 08:32:54;;;;;;;9.98;2.75;;;17.90;99.90;;;;;;5043648;28;20032;-69
2021/08/08 08:35:20;;;;;;;8.10;2.97;;;17.80;99.90;;;;;;5038397;28;20485;-70
2021/08/08 08:37:46;;;;;;;12.25;2.85;;;17.80;99.90;;;;;;5038783;28;20470;-69
2021/08/08 08:40:12;;;;;;;6.78;2.53;;;17.80;99.90;;;;;;5038825;28;20060;-69
2021/08/08 08:42:48;;;;;;;9.00;2.33;;;17.80;99.90;;;;;;5039118;28;20552;-69
2021/08/08 08:45:13;;;;;;;8.75;2.80;;;17.90;99.90;;;;;;5041497;28;20045;-69
2021/08/08 08:47:41;;;;;;;9.75;2.75;;;17.80;99.90;;;;;;5041569;28;20044;-69
2021/08/08 08:50:08;;;;;;;9.55;3.60;;;17.90;99.90;;;;;;5041257;28;20041;-69
2021/08/08 08:52:35;;;;;;;14.20;3.60;;;17.90;99.90;;;;;;5038034;28;20052;-69
2021/08/08 08:55:02;;;;;;;8.20;3.17;;;17.90;99.90;;;;;;5039905;28;20037;-69
2021/08/08 08:57:28;;;;;;;10.38;2.60;;;17.80;99.90;;;;;;5042127;28;20036;-69
2021/08/08 08:59:54;;;;;;;7.65;2.38;;;17.80;99.90;;;;;;5042101;28;20403;-69
2021/08/08 09:02:20;;;;;;;11.85;3.28;;;17.70;99.90;;;;;;5038106;28;20041;-69
2021/08/08 09:04:46;;;;;;;12.88;3.00;;;17.60;99.90;;;;;;5038454;28;20043;-69
2021/08/08 09:07:11;;;;;;;14.05;3.42;;;17.60;99.90;;;;;;5039933;28;20134;-69
2021/08/08 09:09:38;;;;;;;15.13;4.43;;;17.60;99.90;;;;;;5038489;28;20546;-70
2021/08/08 09:12:05;;;;;;;12.77;4.35;;;17.60;99.90;;;;;;5040161;28;20645;-69
2021/08/08 09:14:34;;;;;;;17.13;4.15;;;17.70;99.90;;;;;;5040927;28;20044;-69
2021/08/08 09:17:01;;;;;;;14.27;3.95;;;17.90;99.90;;;;;;5041756;28;20449;-69
2021/08/08 09:19:32;;;;;;;15.88;5.25;;;18.20;99.90;;;;;;5039832;28;20099;-69
2021/08/08 09:21:58;;;;;;;14.98;3.95;;;18.40;99.90;;;;;;5040432;28;20057;-69
2021/08/08 09:24:35;;;;;;;15.77;3.72;;;18.50;99.90;;;;;;5042224;28;20040;-69
2021/08/08 09:27:06;;;;;;;14.00;4.07;;;18.50;99.90;;;;;;5036547;28;20040;-69
2021/08/08 09:29:33;;;;;;;15.88;4.03;;;18.50;99.90;;;;;;5039414;28;20041;-69
2021/08/08 09:31:59;;;;;;;16.25;3.92;;;18.60;99.90;;;;;;5038307;28;20124;-69
2021/08/08 09:34:32;;;;;;;16.40;5.53;;;18.60;99.90;;;;;;5042673;28;20037;-69
2021/08/08 09:37:06;;;;;;;17.20;4.38;;;18.70;99.90;;;;;;5037490;28;20129;-69
2021/08/08 09:39:44;;;;;;;12.47;3.90;;;18.80;99.90;;;;;;5039932;28;20044;-69
2021/08/08 09:42:17;;;;;;;11.45;3.45;;;19.10;99.90;;;;;;5039620;28;20037;-69
2021/08/08 09:44:54;;;;;;;12.50;3.83;;;19.20;99.90;;;;;;5039421;28;20475;-69
2021/08/08 09:47:22;;;;;;;18.17;5.68;;;19.20;99.90;;;;;;5040911;28;20032;-69
2021/08/08 09:50:04;;;;;;;11.18;4.45;;;19.40;99.90;;;;;;5039276;28;20491;-69
2021/08/08 09:52:34;;;;;;;15.75;4.82;;;19.40;99.90;;;;;;5037327;28;20041;-69
2021/08/08 09:55:01;;;;;;;19.40;4.25;;;19.40;99.90;;;;;;5037645;28;20037;-69
2021/08/08 09:57:40;;;;;;;15.77;3.78;;;19.30;99.90;;;;;;5041175;28;20040;-69
2021/08/08 10:00:06;;;;;;;12.32;3.08;;;19.40;99.90;;;;;;5040136;28;20055;-69
2021/08/08 10:02:32;;;;;;;16.90;3.55;;;19.40;99.90;;;;;;5038941;28;20068;-69
2021/08/08 10:04:58;;;;;;;17.75;4.30;;;19.40;99.90;;;;;;5040044;28;20040;-69
2021/08/08 10:07:27;;;;;;;15.23;4.00;;;19.30;99.90;;;;;;5039109;28;20045;-69
2021/08/08 10:09:56;;;;;;;12.07;3.22;;;19.40;99.90;;;;;;5040233;28;20114;-69
2021/08/08 10:12:43;;;;;;;10.27;3.08;;;19.60;99.90;;;;;;5037552;28;20043;-69
2021/08/08 10:15:10;;;;;;;17.80;4.55;;;19.70;99.90;;;;;;5037135;28;20037;-69
2021/08/08 10:17:38;;;;;;;14.95;3.67;;;19.70;99.90;;;;;;5038680;28;20041;-69
2021/08/08 10:20:05;;;;;;;12.15;3.22;;;19.90;99.90;;;;;;5041283;28;20041;-69
2021/08/08 10:22:33;;;;;;;12.70;2.70;;;20.10;99.90;;;;;;5038809;28;20045;-69
2021/08/08 10:25:00;;;;;;;15.20;3.63;;;20.10;99.90;;;;;;5039184;28;20037;-69
2021/08/08 10:27:26;;;;;;;15.32;4.22;;;19.90;99.90;;;;;;5037632;28;20395;-69
2021/08/08 10:29:55;;;;;;;12.30;3.80;;;19.90;99.90;;;;;;5040112;28;20044;-69
2021/08/08 10:32:28;;;;;;;14.48;3.75;;;20.20;99.90;;;;;;5039538;28;20041;-69
2021/08/08 10:34:54;;;;;;;25.80;3.33;;;20.40;99.90;;;;;;5037600;28;20044;-69
2021/08/08 10:37:25;;;;;;;12.02;3.05;;;20.40;99.90;;;;;;5041167;28;20033;-69
2021/08/08 10:39:52;;;;;;;14.80;3.50;;;20.30;99.90;;;;;;5039824;28;20132;-69
2021/08/08 10:42:19;;;;;;;12.70;3.95;;;20.20;99.90;;;;;;5041457;28;20048;-69
2021/08/08 10:44:49;;;;;;;13.13;3.53;;;20.10;99.90;;;;;;5040910;28;20036;-69
2021/08/08 10:47:27;;;;;;;15.88;3.45;;;19.70;99.90;;;;;;5036732;28;20037;-69
2021/08/08 10:49:53;;;;;;;16.60;4.07;;;19.50;99.90;;;;;;5036030;28;20132;-69
2021/08/08 10:52:18;;;;;;;9.63;2.63;;;19.40;99.90;;;;;;5037329;28;20246;-69
2021/08/08 10:54:49;;;;;;;12.60;3.65;;;19.30;99.90;;;;;;5037233;28;20611;-69
2021/08/08 10:57:19;;;;;;;13.20;3.08;;;19.30;99.90;;;;;;5038608;28;20067;-69
2021/08/08 10:59:49;;;;;;;13.43;3.20;;;19.30;99.90;;;;;;5038161;28;20043;-68
2021/08/08 11:02:23;;;;;;;16.17;3.30;;;19.10;99.90;;;;;;5038197;28;20052;-69
2021/08/08 11:04:49;;;;;;;6.45;1.73;;;18.90;99.90;;;;;;5038565;28;20121;-69
2021/08/08 11:07:16;;;;;;;7.47;2.13;;;18.70;99.90;;;;;;5037561;28;20080;-68
2021/08/08 11:09:43;;;;;;;13.07;2.65;;;18.60;99.90;;;;;;5037653;28;20042;-68
2021/08/08 11:12:10;;;;;;;13.63;3.53;;;18.50;99.90;;;;;;5036282;28;20079;-68
2021/08/08 11:14:46;;;;;;;9.70;3.25;;;18.40;99.90;;;;;;5039464;28;20049;-69
2021/08/08 11:17:12;;;;;;;12.40;3.42;;;18.40;99.90;;;;;;5036362;28;20043;-69
2021/08/08 11:19:40;;;;;;;16.33;3.40;;;18.30;99.90;;;;;;5040765;28;21032;-69
2021/08/08 11:22:15;;;;;;;14.35;4.10;;;18.30;99.90;;;;;;5036483;28;20052;-69
2021/08/08 11:24:43;;;;;;;16.98;4.38;;;18.30;99.90;;;;;;5036217;28;20087;-69
2021/08/08 11:27:10;;;;;;;13.98;3.58;;;18.40;99.90;;;;;;5037084;28;20108;-69
2021/08/08 11:29:37;;;;;;;12.70;3.85;;;18.50;99.90;;;;;;5040724;28;20213;-69
2021/08/08 11:32:06;;;;;;;17.63;4.00;;;18.60;99.90;;;;;;5040919;28;20045;-69
2021/08/08 11:34:32;;;;;;;12.48;3.47;;;18.60;99.90;;;;;;5043898;28;20041;-69
2021/08/08 11:36:58;;;;;;;17.80;4.60;;;18.60;99.90;;;;;;5040254;28;20488;-68
2021/08/08 11:39:35;;;;;;;12.65;4.15;;;18.50;99.90;;;;;;5043517;28;20506;-69
2021/08/08 11:42:06;;;;;;;14.98;4.82;;;18.50;99.90;;;;;;5040810;28;20503;-68
2021/08/08 11:44:40;;;;;;;13.63;3.83;;;18.40;99.90;;;;;;5041067;28;20037;-68
2021/08/08 11:47:07;;;;;;;13.57;3.92;;;18.20;99.90;;;;;;5040904;28;20569;-69
2021/08/08 11:49:44;;;;;;;15.93;4.13;;;18.10;99.90;;;;;;5040212;28;20053;-69
2021/08/08 11:52:12;;;;;;;14.95;3.80;;;18.10;99.90;;;;;;5040310;28;20053;-69
2021/08/08 11:54:38;;;;;;;14.95;4.38;;;18.10;99.90;;;;;;5038237;28;20461;-69
2021/08/08 11:57:04;;;;;;;13.55;3.35;;;18.20;99.90;;;;;;5039310;28;20048;-69
2021/08/08 11:59:31;;;;;;;20.08;3.90;;;18.40;99.90;;;;;;5041275;28;20046;-69
2021/08/08 12:01:59;;;;;;;11.40;3.08;;;18.60;99.90;;;;;;5039481;28;20040;-67
2021/08/08 12:04:25;;;;;;;14.23;3.45;;;18.90;99.90;;;;;;5044598;28;20033;-68
2021/08/08 12:06:52;;;;;;;11.73;3.10;;;19.30;99.90;;;;;;5042400;28;20044;-67
2021/08/08 12:09:18;;;;;;;10.88;2.80;;;19.60;99.90;;;;;;5042469;28;20051;-67
2021/08/08 12:11:52;;;;;;;10.30;2.95;;;19.70;99.90;;;;;;5042800;28;20045;-67
2021/08/08 12:14:38;;;;;;;11.55;2.90;;;20.00;99.90;;;;;;5041196;28;20097;-68
2021/08/08 12:17:15;;;;;;;12.00;3.05;;;20.10;99.90;;;;;;5042560;28;20212;-68
2021/08/08 12:19:44;;;;;;;8.38;2.35;;;20.20;99.90;;;;;;5041655;28;20092;-67
2021/08/08 12:22:15;;;;;;;9.95;2.75;;;20.10;99.90;;;;;;5037469;28;20044;-67
2021/08/08 12:24:46;;;;;;;12.68;3.00;;;20.00;99.90;;;;;;5041986;28;20040;-67
2021/08/08 12:27:15;;;;;;;7.68;2.38;;;19.90;99.90;;;;;;5043769;28;20091;-67
2021/08/08 12:29:42;;;;;;;13.18;3.78;;;19.80;99.90;;;;;;5041361;28;20500;-67
2021/08/08 12:32:09;;;;;;;11.05;2.45;;;19.70;99.90;;;;;;5038926;28;20589;-66
2021/08/08 12:34:34;;;;;;;8.55;3.08;;;19.80;99.90;;;;;;5041407;28;20378;-67
2021/08/08 12:37:10;;;;;;;9.27;2.35;;;19.90;99.90;;;;;;5041394;28;20036;-67
2021/08/08 12:39:39;;;;;;;12.40;2.90;;;20.00;99.90;;;;;;5043590;28;20144;-66